Time;durP1;ratioP1;P1;durP2;ratioP2;P2;SDS_P1;SDS_P2;PMS_P1;PMS_P2;Temp;Humidity;BMP_temperature;BMP_pressure;BME280_temperature;BME280_humidity;BME280_pressure;Samples;Min_cycle;Max_cycle;Signal;HPM_P1;HPM_P2
2021/10/16 00:01:09;;;;;;;26.17;24.10;;;7.60;99.90;;;;;;4366876;32;20180;-65
2021/10/16 00:03:35;;;;;;;25.27;22.90;;;7.60;99.90;;;;;;4373562;32;20172;-64
2021/10/16 00:06:02;;;;;;;24.13;22.00;;;7.60;99.90;;;;;;4378616;32;20488;-65
2021/10/16 00:08:29;;;;;;;24.13;22.07;;;7.70;99.90;;;;;;4377340;32;20168;-65
2021/10/16 00:10:59;;;;;;;24.00;22.33;;;7.70;99.90;;;;;;4377877;32;20208;-63
2021/10/16 00:13:26;;;;;;;25.43;23.20;;;7.80;99.90;;;;;;4377108;32;20163;-65
2021/10/16 00:15:53;;;;;;;25.43;23.33;;;7.80;99.90;;;;;;4377323;32;20171;-63
2021/10/16 00:18:20;;;;;;;25.37;23.10;;;7.80;99.90;;;;;;4377013;32;20212;-63
2021/10/16 00:20:49;;;;;;;25.40;23.37;;;7.80;99.90;;;;;;4378298;32;20168;-63
2021/10/16 00:23:19;;;;;;;24.60;22.80;;;7.90;99.90;;;;;;4366130;32;20161;-63
2021/10/16 00:25:47;;;;;;;25.57;23.80;;;7.90;99.90;;;;;;4361625;33;20195;-64
2021/10/16 00:28:18;;;;;;;23.00;21.27;;;7.90;99.90;;;;;;4360786;32;20153;-63
2021/10/16 00:30:45;;;;;;;23.97;21.93;;;7.90;99.90;;;;;;4363677;32;20600;-64
2021/10/16 00:33:13;;;;;;;24.23;22.07;;;7.90;99.90;;;;;;4362662;32;20148;-65
2021/10/16 00:35:40;;;;;;;25.23;23.23;;;7.90;99.90;;;;;;4361790;33;20205;-63
2021/10/16 00:38:07;;;;;;;23.80;21.80;;;7.90;99.90;;;;;;4360266;33;20170;-63
2021/10/16 00:40:34;;;;;;;22.43;20.63;;;7.90;99.90;;;;;;4347654;33;20172;-64
2021/10/16 00:43:01;;;;;;;23.17;21.47;;;7.90;99.90;;;;;;4348353;33;20168;-65
2021/10/16 00:45:32;;;;;;;23.33;21.40;;;7.90;99.90;;;;;;4347344;33;20150;-65
2021/10/16 00:47:59;;;;;;;22.93;21.07;;;8.00;99.90;;;;;;4348537;33;20193;-64
2021/10/16 00:50:25;;;;;;;22.63;20.87;;;8.00;99.90;;;;;;4346908;33;20178;-63
2021/10/16 00:52:53;;;;;;;24.67;22.47;;;8.10;99.90;;;;;;4346821;33;20150;-63
2021/10/16 00:55:22;;;;;;;22.30;20.30;;;8.10;99.90;;;;;;4353447;32;20174;-63
2021/10/16 00:57:50;;;;;;;22.53;20.67;;;8.10;99.90;;;;;;4360056;32;20223;-64
2021/10/16 01:00:17;;;;;;;21.97;20.17;;;8.10;99.90;;;;;;4362785;32;20573;-64
2021/10/16 01:02:45;;;;;;;22.63;20.60;;;8.10;99.90;;;;;;4361377;33;20177;-64
2021/10/16 01:05:13;;;;;;;22.67;20.57;;;8.10;99.90;;;;;;4362203;32;20193;-63
2021/10/16 01:07:41;;;;;;;20.73;19.23;;;8.10;99.90;;;;;;4361691;32;20592;-65
2021/10/16 01:10:11;;;;;;;22.27;20.63;;;8.20;99.90;;;;;;4361179;33;20160;-63
2021/10/16 01:12:38;;;;;;;22.83;20.90;;;8.20;99.90;;;;;;4362426;32;20566;-65
2021/10/16 01:15:08;;;;;;;22.80;21.10;;;8.20;99.90;;;;;;4361387;33;20180;-65
2021/10/16 01:17:37;;;;;;;21.17;19.77;;;8.30;99.90;;;;;;4361692;32;20590;-65
2021/10/16 01:20:11;;;;;;;22.57;20.93;;;8.30;99.90;;;;;;4361209;33;20169;-63
2021/10/16 01:22:40;;;;;;;20.60;19.27;;;8.30;99.90;;;;;;4361117;32;20457;-65
2021/10/16 01:25:12;;;;;;;21.63;20.13;;;8.30;99.90;;;;;;4362395;32;20190;-64
2021/10/16 01:27:40;;;;;;;20.37;18.77;;;8.30;99.90;;;;;;4361238;33;20180;-65
2021/10/16 01:30:09;;;;;;;20.60;18.97;;;8.30;99.90;;;;;;4361157;33;20145;-65
2021/10/16 01:32:37;;;;;;;19.73;18.23;;;8.40;99.90;;;;;;4360940;33;20220;-62
2021/10/16 01:35:04;;;;;;;19.57;18.00;;;8.40;99.90;;;;;;4362682;32;20185;-63
2021/10/16 01:37:32;;;;;;;18.37;17.17;;;8.30;99.90;;;;;;4362715;32;20189;-64
2021/10/16 01:40:00;;;;;;;21.97;20.23;;;8.30;99.90;;;;;;4360741;32;20529;-64
2021/10/16 01:42:29;;;;;;;18.93;17.67;;;8.40;99.90;;;;;;4360916;33;20203;-64
2021/10/16 01:44:56;;;;;;;19.73;18.03;;;8.40;99.90;;;;;;4362619;32;20156;-63
2021/10/16 01:47:23;;;;;;;19.07;17.47;;;8.40;99.90;;;;;;4362444;32;20150;-65
2021/10/16 01:49:49;;;;;;;18.33;16.87;;;8.40;99.90;;;;;;4360810;33;20560;-63
2021/10/16 01:52:16;;;;;;;19.30;18.00;;;8.40;99.90;;;;;;4362531;32;20191;-64
2021/10/16 01:54:46;;;;;;;22.20;20.77;;;8.30;99.90;;;;;;4361019;32;20180;-65
2021/10/16 01:57:14;;;;;;;19.83;18.30;;;8.30;99.90;;;;;;4361404;32;20146;-63
2021/10/16 01:59:41;;;;;;;23.33;21.53;;;8.30;99.90;;;;;;4360811;33;20235;-63
2021/10/16 02:02:08;;;;;;;19.83;18.60;;;8.40;99.90;;;;;;4360760;33;20197;-63
2021/10/16 02:04:34;;;;;;;22.77;21.17;;;8.40;99.90;;;;;;4360633;33;20151;-63
2021/10/16 02:07:01;;;;;;;19.73;18.03;;;8.40;99.90;;;;;;4361743;32;20149;-63
2021/10/16 02:09:28;;;;;;;21.73;20.07;;;8.40;99.90;;;;;;4362123;32;20570;-64
2021/10/16 02:11:55;;;;;;;24.23;22.23;;;8.50;99.90;;;;;;4362203;32;20149;-64
2021/10/16 02:14:23;;;;;;;22.30;20.70;;;8.50;99.90;;;;;;4362133;32;20255;-63
2021/10/16 02:16:50;;;;;;;21.53;19.93;;;8.50;99.90;;;;;;4361488;32;20219;-63
2021/10/16 02:19:19;;;;;;;21.37;19.97;;;8.50;99.90;;;;;;4362031;32;20206;-63
2021/10/16 02:21:46;;;;;;;24.37;22.60;;;8.50;99.90;;;;;;4359534;32;20150;-63
2021/10/16 02:24:13;;;;;;;25.20;23.23;;;8.60;99.90;;;;;;4345723;33;20155;-64
2021/10/16 02:26:39;;;;;;;21.47;19.97;;;8.60;99.90;;;;;;4345795;33;20230;-65
2021/10/16 02:29:06;;;;;;;21.57;19.90;;;8.60;99.90;;;;;;4344627;33;20195;-64
2021/10/16 02:31:34;;;;;;;21.27;19.40;;;8.70;99.90;;;;;;4346472;33;20183;-63
2021/10/16 02:34:01;;;;;;;21.80;19.87;;;8.70;99.90;;;;;;4345644;33;20210;-63
2021/10/16 02:36:28;;;;;;;22.93;21.23;;;8.70;99.90;;;;;;4346502;33;20550;-63
2021/10/16 02:38:55;;;;;;;21.13;19.63;;;8.70;99.90;;;;;;4345283;33;20170;-64
2021/10/16 02:41:23;;;;;;;23.37;21.93;;;8.60;99.90;;;;;;4351857;33;20529;-65
2021/10/16 02:43:52;;;;;;;21.33;19.77;;;8.70;99.90;;;;;;4352573;33;20159;-64
2021/10/16 02:46:19;;;;;;;23.37;21.43;;;8.70;99.90;;;;;;4353115;33;20169;-65
2021/10/16 02:48:47;;;;;;;22.03;20.43;;;8.70;99.90;;;;;;4351447;33;20213;-65
2021/10/16 02:51:14;;;;;;;22.60;21.23;;;8.70;99.90;;;;;;4352227;33;20163;-65
2021/10/16 02:53:40;;;;;;;21.83;20.43;;;8.70;99.90;;;;;;4352882;33;20201;-64
2021/10/16 02:56:07;;;;;;;21.80;20.33;;;8.70;99.90;;;;;;4349226;33;20186;-65
2021/10/16 02:58:34;;;;;;;21.77;20.27;;;8.80;99.90;;;;;;4353941;33;20164;-64
2021/10/16 03:01:01;;;;;;;22.30;20.40;;;8.70;99.90;;;;;;4354379;33;20226;-65
2021/10/16 03:03:28;;;;;;;21.93;20.50;;;8.70;99.90;;;;;;4349797;33;20161;-63
2021/10/16 03:05:56;;;;;;;21.77;20.00;;;8.70;99.90;;;;;;4352141;33;20193;-63
2021/10/16 03:08:23;;;;;;;20.67;19.00;;;8.70;99.90;;;;;;4353381;33;20562;-63
2021/10/16 03:10:49;;;;;;;22.87;21.20;;;8.80;99.90;;;;;;4352883;33;20162;-64
2021/10/16 03:13:16;;;;;;;21.13;19.60;;;8.70;99.90;;;;;;4353690;33;20186;-65
2021/10/16 03:15:43;;;;;;;21.50;20.00;;;8.70;99.90;;;;;;4355475;33;20225;-64
2021/10/16 03:18:10;;;;;;;21.57;20.13;;;8.80;99.90;;;;;;4351972;33;20169;-63
2021/10/16 03:20:39;;;;;;;22.60;21.03;;;8.80;99.90;;;;;;4352489;33;20632;-63
2021/10/16 03:23:08;;;;;;;24.43;22.60;;;8.70;99.90;;;;;;4354415;33;20620;-64
2021/10/16 03:25:35;;;;;;;21.83;19.93;;;8.70;99.90;;;;;;4357821;32;20588;-64
2021/10/16 03:28:02;;;;;;;25.47;23.27;;;8.70;99.90;;;;;;4369209;32;20235;-63
2021/10/16 03:30:28;;;;;;;23.17;21.37;;;8.70;99.90;;;;;;4367761;32;20159;-63
2021/10/16 03:32:57;;;;;;;21.27;19.53;;;8.70;99.90;;;;;;4368600;32;20586;-63
2021/10/16 03:35:24;;;;;;;22.20;20.60;;;8.70;99.90;;;;;;4365805;32;20152;-63
2021/10/16 03:37:51;;;;;;;23.03;21.20;;;8.70;99.90;;;;;;4369683;32;20208;-63
2021/10/16 03:40:19;;;;;;;23.23;21.20;;;8.70;99.90;;;;;;4370287;32;20162;-64
2021/10/16 03:42:46;;;;;;;25.30;23.33;;;8.80;99.90;;;;;;4370078;32;20152;-64
2021/10/16 03:45:13;;;;;;;23.33;21.47;;;8.70;99.90;;;;;;4369295;32;20636;-64
2021/10/16 03:47:40;;;;;;;22.07;20.30;;;8.60;99.90;;;;;;4368593;32;20199;-64
2021/10/16 03:50:08;;;;;;;27.17;25.00;;;8.50;99.90;;;;;;4368042;32;20210;-63
2021/10/16 03:52:37;;;;;;;21.90;20.40;;;8.60;99.90;;;;;;4369630;32;20153;-63
2021/10/16 03:55:04;;;;;;;23.80;22.00;;;8.60;99.90;;;;;;4369985;32;20185;-63
2021/10/16 03:57:33;;;;;;;22.13;20.57;;;8.70;99.90;;;;;;4370418;32;20183;-64
2021/10/16 04:00:02;;;;;;;22.73;21.10;;;8.60;99.90;;;;;;4368634;32;20160;-63
2021/10/16 04:02:29;;;;;;;22.23;20.67;;;8.70;99.90;;;;;;4367458;32;20163;-63
2021/10/16 04:04:56;;;;;;;25.30;23.00;;;8.80;99.90;;;;;;4368921;32;20196;-63
2021/10/16 04:07:23;;;;;;;25.90;23.97;;;8.70;99.90;;;;;;4370781;32;20248;-64
2021/10/16 04:09:50;;;;;;;25.93;24.37;;;8.60;99.90;;;;;;4370983;32;20159;-65
2021/10/16 04:12:18;;;;;;;25.67;23.63;;;8.50;99.90;;;;;;4367722;32;20173;-65
2021/10/16 04:14:46;;;;;;;22.57;20.70;;;8.50;99.90;;;;;;4369482;32;20159;-64
2021/10/16 04:17:15;;;;;;;22.43;20.83;;;8.50;99.90;;;;;;4370116;32;20215;-64
2021/10/16 04:19:42;;;;;;;22.23;20.03;;;8.60;99.90;;;;;;4369920;32;20196;-65
2021/10/16 04:22:12;;;;;;;23.23;21.23;;;8.60;99.90;;;;;;4366300;32;20170;-64
2021/10/16 04:24:39;;;;;;;22.73;21.20;;;8.60;99.90;;;;;;4368338;32;20537;-63
2021/10/16 04:27:06;;;;;;;22.23;20.63;;;8.70;99.90;;;;;;4370760;32;20464;-64
2021/10/16 04:29:33;;;;;;;23.03;21.43;;;8.70;99.90;;;;;;4370003;32;20209;-65
2021/10/16 04:32:01;;;;;;;24.23;22.53;;;8.70;99.90;;;;;;4371830;32;20164;-64
2021/10/16 04:34:27;;;;;;;23.83;21.83;;;8.70;99.90;;;;;;4367437;32;20608;-65
2021/10/16 04:36:54;;;;;;;20.63;19.33;;;8.70;99.90;;;;;;4368725;32;20564;-63
2021/10/16 04:39:21;;;;;;;22.47;20.97;;;8.70;99.90;;;;;;4369090;32;20153;-65
2021/10/16 04:41:48;;;;;;;24.00;22.13;;;8.70;99.90;;;;;;4366687;32;20156;-65
2021/10/16 04:44:15;;;;;;;23.87;22.13;;;8.70;99.90;;;;;;4370249;32;20191;-64
2021/10/16 04:46:43;;;;;;;23.67;22.13;;;8.70;99.90;;;;;;4366952;32;20216;-65
2021/10/16 04:49:13;;;;;;;24.67;22.60;;;8.70;99.90;;;;;;4367770;32;20156;-65
2021/10/16 04:51:42;;;;;;;23.10;21.37;;;8.70;99.90;;;;;;4368464;32;20171;-63
2021/10/16 04:54:10;;;;;;;24.73;22.77;;;8.70;99.90;;;;;;4365951;32;20151;-63
2021/10/16 04:56:36;;;;;;;24.40;22.70;;;8.80;99.90;;;;;;4368196;32;20160;-63
2021/10/16 04:59:03;;;;;;;26.30;24.07;;;8.80;99.90;;;;;;4370792;32;20570;-63
2021/10/16 05:01:30;;;;;;;23.13;21.10;;;8.80;99.90;;;;;;4369203;32;20180;-64
2021/10/16 05:03:57;;;;;;;24.33;22.23;;;8.80;99.90;;;;;;4368374;32;20193;-64
2021/10/16 05:06:25;;;;;;;21.97;20.37;;;8.80;99.90;;;;;;4368740;32;20186;-63
2021/10/16 05:08:54;;;;;;;24.47;22.77;;;8.80;99.90;;;;;;4367847;32;20154;-64
2021/10/16 05:11:26;;;;;;;22.57;20.60;;;8.90;99.90;;;;;;4368245;32;20205;-64
2021/10/16 05:13:56;;;;;;;23.40;21.50;;;8.90;99.90;;;;;;4367957;32;20230;-65
2021/10/16 05:16:22;;;;;;;24.37;22.33;;;8.90;99.90;;;;;;4370168;32;20180;-65
2021/10/16 05:18:51;;;;;;;22.30;20.37;;;9.00;99.90;;;;;;4365965;32;20159;-65
2021/10/16 05:21:18;;;;;;;23.67;21.77;;;9.00;99.90;;;;;;4368114;32;20203;-65
2021/10/16 05:23:46;;;;;;;24.00;22.20;;;9.00;99.90;;;;;;4370054;32;20165;-63
2021/10/16 05:26:13;;;;;;;24.63;22.40;;;9.00;99.90;;;;;;4367349;32;20226;-64
2021/10/16 05:28:40;;;;;;;23.67;21.80;;;9.10;99.90;;;;;;4369266;32;20186;-65
2021/10/16 05:31:08;;;;;;;23.70;21.93;;;9.10;99.90;;;;;;4366663;32;20271;-63
2021/10/16 05:33:35;;;;;;;24.90;22.67;;;9.10;99.90;;;;;;4369787;32;20541;-64
2021/10/16 05:36:02;;;;;;;26.60;24.60;;;9.20;99.90;;;;;;4368395;32;20216;-63
2021/10/16 05:38:28;;;;;;;25.50;23.43;;;9.20;99.90;;;;;;4368109;32;20148;-63
2021/10/16 05:41:00;;;;;;;24.50;22.37;;;9.20;99.90;;;;;;4368067;32;20179;-63
2021/10/16 05:43:26;;;;;;;27.53;25.67;;;9.20;99.90;;;;;;4368722;32;20485;-63
2021/10/16 05:45:53;;;;;;;25.33;23.53;;;9.20;99.90;;;;;;4362317;32;20245;-63
2021/10/16 05:48:20;;;;;;;24.77;22.60;;;9.20;99.90;;;;;;4365356;32;20154;-64
2021/10/16 05:50:47;;;;;;;24.77;23.03;;;9.20;99.90;;;;;;4366678;32;20531;-64
2021/10/16 05:53:14;;;;;;;24.77;22.57;;;9.30;99.90;;;;;;4367360;32;20547;-63
2021/10/16 05:55:41;;;;;;;23.63;20.93;;;9.30;99.90;;;;;;4362800;32;20190;-63
2021/10/16 05:58:09;;;;;;;24.70;22.90;;;9.30;99.90;;;;;;4367436;32;20587;-64
2021/10/16 06:00:36;;;;;;;22.37;20.97;;;9.30;99.90;;;;;;4368660;32;20160;-64
2021/10/16 06:03:03;;;;;;;22.73;20.63;;;9.30;99.90;;;;;;4369192;32;20148;-63
2021/10/16 06:05:29;;;;;;;23.33;21.60;;;9.30;99.90;;;;;;4369986;32;20163;-64
2021/10/16 06:07:56;;;;;;;23.37;21.77;;;9.30;99.90;;;;;;4372428;32;20161;-63
2021/10/16 06:10:24;;;;;;;24.80;22.60;;;9.30;99.90;;;;;;4370889;32;20200;-63
2021/10/16 06:12:51;;;;;;;27.37;25.10;;;9.30;99.90;;;;;;4369183;32;20480;-64
2021/10/16 06:15:19;;;;;;;25.63;23.83;;;9.30;99.90;;;;;;4364228;32;20225;-63
2021/10/16 06:17:46;;;;;;;29.87;27.77;;;9.40;99.90;;;;;;4365551;32;20180;-63
2021/10/16 06:20:13;;;;;;;25.13;23.53;;;9.40;99.90;;;;;;4366253;32;20181;-63
2021/10/16 06:22:40;;;;;;;28.03;25.97;;;9.40;99.90;;;;;;4365371;32;20582;-64
2021/10/16 06:25:10;;;;;;;23.77;21.60;;;9.40;99.90;;;;;;4366527;32;20176;-63
2021/10/16 06:27:37;;;;;;;23.73;22.03;;;9.40;99.90;;;;;;4360239;32;20180;-63
2021/10/16 06:30:05;;;;;;;23.00;21.00;;;9.40;99.90;;;;;;4363424;32;20208;-62
2021/10/16 06:32:33;;;;;;;26.23;24.27;;;9.40;99.90;;;;;;4364231;32;20182;-62
2021/10/16 06:35:04;;;;;;;23.97;22.20;;;9.40;99.90;;;;;;4359929;32;20176;-62
2021/10/16 06:37:31;;;;;;;23.67;22.07;;;9.40;99.90;;;;;;4357536;32;20235;-62
2021/10/16 06:39:58;;;;;;;25.57;23.37;;;9.50;99.90;;;;;;4361840;32;20211;-62
2021/10/16 06:42:25;;;;;;;26.57;24.57;;;9.50;99.90;;;;;;4358798;32;20577;-63
2021/10/16 06:44:53;;;;;;;23.13;21.63;;;9.50;99.90;;;;;;4361858;32;20180;-63
2021/10/16 06:47:20;;;;;;;24.77;22.73;;;9.50;99.90;;;;;;4359607;32;20223;-63
2021/10/16 06:49:48;;;;;;;25.73;23.60;;;9.60;99.90;;;;;;4359211;32;20699;-63
2021/10/16 06:52:15;;;;;;;25.60;23.40;;;9.60;99.90;;;;;;4358395;32;20180;-63
2021/10/16 06:54:43;;;;;;;24.50;22.43;;;9.70;99.90;;;;;;4361665;32;20545;-63
2021/10/16 06:57:10;;;;;;;25.87;24.00;;;9.80;99.90;;;;;;4356139;32;20216;-62
2021/10/16 06:59:37;;;;;;;23.87;22.20;;;9.70;99.90;;;;;;4355925;32;20586;-63
2021/10/16 07:02:04;;;;;;;24.73;22.80;;;9.80;99.90;;;;;;4354162;32;20160;-63
2021/10/16 07:04:31;;;;;;;24.23;22.37;;;9.90;99.90;;;;;;4353763;33;20225;-63
2021/10/16 07:06:59;;;;;;;24.27;22.37;;;9.90;99.90;;;;;;4357919;32;20175;-62
2021/10/16 07:09:26;;;;;;;25.63;23.83;;;10.00;99.90;;;;;;4360985;32;20167;-63
2021/10/16 07:11:53;;;;;;;24.53;22.73;;;10.00;99.90;;;;;;4362964;32;20163;-62
2021/10/16 07:14:20;;;;;;;24.10;21.57;;;10.10;99.90;;;;;;4361653;32;20657;-63
2021/10/16 07:16:47;;;;;;;25.50;23.73;;;10.20;99.90;;;;;;4366755;32;20213;-63
2021/10/16 07:19:17;;;;;;;25.87;23.87;;;10.30;99.90;;;;;;4367139;32;20252;-63
2021/10/16 07:21:44;;;;;;;24.90;23.13;;;10.40;99.90;;;;;;4363954;32;20199;-62
2021/10/16 07:24:12;;;;;;;22.97;21.37;;;10.40;99.90;;;;;;4363572;32;20168;-63
2021/10/16 07:26:40;;;;;;;25.10;23.10;;;10.50;99.90;;;;;;4362378;32;20185;-63
2021/10/16 07:29:10;;;;;;;24.47;22.67;;;10.50;99.90;;;;;;4364011;32;20569;-62
2021/10/16 07:31:39;;;;;;;28.47;26.47;;;10.60;99.90;;;;;;4361305;32;20239;-63
2021/10/16 07:34:06;;;;;;;25.63;23.63;;;10.70;99.90;;;;;;4356090;32;20218;-63
2021/10/16 07:36:36;;;;;;;24.93;22.47;;;10.80;99.90;;;;;;4355493;32;20502;-63
2021/10/16 07:39:04;;;;;;;23.80;22.10;;;10.80;99.90;;;;;;4358631;32;20150;-62
2021/10/16 07:41:32;;;;;;;24.70;22.73;;;10.80;99.90;;;;;;4360153;32;20172;-63
2021/10/16 07:43:59;;;;;;;27.23;24.93;;;10.90;99.90;;;;;;4356967;32;20474;-63
2021/10/16 07:46:26;;;;;;;23.97;22.43;;;10.90;99.90;;;;;;4352450;32;20574;-63
2021/10/16 07:48:53;;;;;;;26.20;24.57;;;11.00;99.90;;;;;;4357501;32;20489;-63
2021/10/16 07:51:19;;;;;;;26.10;24.30;;;11.10;99.90;;;;;;4359794;32;20186;-63
2021/10/16 07:53:46;;;;;;;27.90;25.97;;;11.20;99.90;;;;;;4355586;33;20532;-63
2021/10/16 07:56:13;;;;;;;27.43;25.00;;;11.30;99.90;;;;;;4353048;32;20224;-63
2021/10/16 07:58:41;;;;;;;25.57;23.57;;;11.30;99.90;;;;;;4356431;32;20216;-63
2021/10/16 08:01:09;;;;;;;26.17;24.27;;;11.40;99.90;;;;;;4354244;33;20160;-63
2021/10/16 08:03:36;;;;;;;23.13;21.20;;;11.40;99.90;;;;;;4354034;32;20623;-64
2021/10/16 08:06:03;;;;;;;27.33;25.07;;;11.30;99.90;;;;;;4353806;32;20501;-63
2021/10/16 08:08:30;;;;;;;25.90;24.10;;;11.30;99.90;;;;;;4353212;33;20178;-64
2021/10/16 08:10:58;;;;;;;25.83;23.53;;;11.40;99.90;;;;;;4354469;32;20883;-64
2021/10/16 08:13:26;;;;;;;23.13;21.63;;;11.40;99.90;;;;;;4357378;32;20188;-65
2021/10/16 08:15:54;;;;;;;25.17;23.70;;;11.50;99.90;;;;;;4353767;33;20218;-63
2021/10/16 08:18:21;;;;;;;23.80;21.87;;;11.50;99.90;;;;;;4351828;33;20212;-63
2021/10/16 08:20:48;;;;;;;24.87;23.17;;;11.50;99.90;;;;;;4356110;32;20161;-64
2021/10/16 08:23:15;;;;;;;25.50;23.77;;;11.50;99.90;;;;;;4353808;32;20489;-64
2021/10/16 08:25:42;;;;;;;28.50;26.17;;;11.60;99.90;;;;;;4354152;33;20251;-63
2021/10/16 08:28:10;;;;;;;26.60;24.17;;;11.60;99.90;;;;;;4353866;33;20228;-65
2021/10/16 08:30:39;;;;;;;26.47;24.67;;;11.60;99.90;;;;;;4352903;33;20157;-63
2021/10/16 08:33:07;;;;;;;25.57;23.97;;;11.50;99.90;;;;;;4353991;32;20608;-63
2021/10/16 08:35:34;;;;;;;29.03;25.73;;;11.60;99.90;;;;;;4353797;33;20210;-63
2021/10/16 08:38:01;;;;;;;25.67;23.20;;;11.70;99.90;;;;;;4349476;32;20273;-64
2021/10/16 08:40:28;;;;;;;25.97;23.70;;;11.80;99.90;;;;;;4356984;33;20241;-64
2021/10/16 08:42:55;;;;;;;30.00;27.87;;;11.90;99.90;;;;;;4355356;33;20176;-63
2021/10/16 08:45:22;;;;;;;28.80;26.50;;;12.00;99.90;;;;;;4354238;32;20183;-65
2021/10/16 08:47:49;;;;;;;28.20;26.50;;;12.10;99.90;;;;;;4355155;32;20187;-63
2021/10/16 08:50:17;;;;;;;24.17;22.33;;;12.20;99.90;;;;;;4353237;33;20176;-63
2021/10/16 08:52:44;;;;;;;25.43;23.43;;;12.30;99.90;;;;;;4350538;33;20286;-65
2021/10/16 08:55:12;;;;;;;27.73;25.87;;;12.30;99.90;;;;;;4354406;32;20216;-66
2021/10/16 08:57:42;;;;;;;26.93;24.80;;;12.50;99.90;;;;;;4353242;33;20181;-66
2021/10/16 09:00:49;;;;;;;27.63;25.47;;;12.50;99.90;;;;;;4354580;32;20153;-63
2021/10/16 09:03:25;;;;;;;28.03;25.23;;;12.60;99.90;;;;;;4355884;33;20152;-63
2021/10/16 09:06:05;;;;;;;27.10;24.93;;;12.60;99.90;;;;;;4355026;32;20232;-64
2021/10/16 09:08:34;;;;;;;22.93;20.87;;;12.70;99.90;;;;;;4350397;33;20156;-64
2021/10/16 09:11:12;;;;;;;22.87;21.13;;;12.70;99.90;;;;;;4360583;32;20202;-63
2021/10/16 09:13:44;;;;;;;23.50;21.40;;;12.70;99.90;;;;;;4355925;33;20183;-65
2021/10/16 09:16:23;;;;;;;24.63;22.63;;;12.70;99.90;;;;;;4361719;32;20172;-63
2021/10/16 09:18:52;;;;;;;26.07;23.60;;;12.80;99.90;;;;;;4359078;32;20493;-65
2021/10/16 09:21:22;;;;;;;25.57;23.37;;;13.00;99.90;;;;;;4357439;33;20197;-64
2021/10/16 09:24:06;;;;;;;29.83;26.23;;;13.10;99.90;;;;;;4359864;33;20625;-64
2021/10/16 09:26:38;;;;;;;27.33;24.97;;;13.30;99.90;;;;;;4354263;33;20177;-62
2021/10/16 09:29:07;;;;;;;26.87;24.63;;;13.40;99.90;;;;;;4360470;32;20204;-62
2021/10/16 09:31:36;;;;;;;25.40;22.63;;;13.60;99.90;;;;;;4360416;32;20690;-62
2021/10/16 09:34:04;;;;;;;23.07;21.27;;;13.70;99.90;;;;;;4357548;32;20623;-64
2021/10/16 09:36:35;;;;;;;22.57;20.40;;;13.80;99.90;;;;;;4354530;32;20218;-63
2021/10/16 09:39:03;;;;;;;24.63;22.43;;;13.80;99.90;;;;;;4358585;33;20176;-65
2021/10/16 09:41:33;;;;;;;24.03;22.30;;;13.90;99.90;;;;;;4360173;33;20208;-62
2021/10/16 09:43:59;;;;;;;22.50;20.37;;;14.10;99.90;;;;;;4346016;33;20595;-65
2021/10/16 09:46:27;;;;;;;20.93;19.23;;;14.20;99.90;;;;;;4351346;33;20176;-63
2021/10/16 09:48:54;;;;;;;24.67;22.73;;;14.40;99.90;;;;;;4351743;32;20173;-63
2021/10/16 09:51:23;;;;;;;22.90;21.33;;;14.40;99.90;;;;;;4360471;32;20208;-64
2021/10/16 09:54:07;;;;;;;24.13;22.43;;;14.60;99.90;;;;;;4359752;32;20176;-64
2021/10/16 09:56:37;;;;;;;21.40;19.40;;;14.70;99.90;;;;;;4361438;32;20174;-63
2021/10/16 09:59:05;;;;;;;21.57;19.23;;;14.70;99.90;;;;;;4361699;32;20196;-65
2021/10/16 10:01:32;;;;;;;19.40;17.40;;;14.60;99.90;;;;;;4359843;32;20458;-66
2021/10/16 10:04:01;;;;;;;22.60;20.47;;;14.50;99.90;;;;;;4353970;32;20172;-64
2021/10/16 10:06:28;;;;;;;19.47;17.80;;;14.40;99.90;;;;;;4347211;32;20153;-64
2021/10/16 10:08:57;;;;;;;24.30;22.13;;;14.40;99.90;;;;;;4350443;32;20226;-64
2021/10/16 10:11:25;;;;;;;24.10;21.70;;;14.50;99.90;;;;;;4355264;33;20180;-66
2021/10/16 10:13:52;;;;;;;23.23;21.50;;;14.50;99.90;;;;;;4350683;33;20162;-63
2021/10/16 10:16:25;;;;;;;22.03;20.20;;;14.60;99.90;;;;;;4356638;33;20149;-64
2021/10/16 10:19:01;;;;;;;23.67;21.53;;;14.50;99.90;;;;;;4356371;32;20216;-65
2021/10/16 10:21:33;;;;;;;22.00;20.30;;;14.50;99.90;;;;;;4350368;32;20153;-63
2021/10/16 10:24:03;;;;;;;22.57;20.67;;;14.40;99.90;;;;;;4358579;32;20486;-64
2021/10/16 10:26:32;;;;;;;24.10;22.20;;;14.40;99.90;;;;;;4357994;33;20216;-65
2021/10/16 10:29:03;;;;;;;26.13;23.70;;;14.40;99.90;;;;;;4346173;33;20164;-64
2021/10/16 10:31:55;;;;;;;23.70;22.00;;;14.40;99.90;;;;;;4347452;33;20216;-63
2021/10/16 10:34:26;;;;;;;22.90;20.33;;;14.40;99.90;;;;;;4354353;33;20198;-64
2021/10/16 10:36:55;;;;;;;25.70;23.20;;;14.30;99.90;;;;;;4356273;33;20213;-64
2021/10/16 10:39:52;;;;;;;23.93;21.93;;;14.30;99.90;;;;;;4348081;33;20165;-64
2021/10/16 10:42:55;;;;;;;23.50;21.43;;;14.20;99.90;;;;;;4353001;33;20160;-63
2021/10/16 10:45:35;;;;;;;25.00;22.83;;;14.10;99.90;;;;;;4354666;32;20629;-64
2021/10/16 10:48:07;;;;;;;25.30;23.40;;;14.00;99.90;;;;;;4361650;33;20581;-64
2021/10/16 10:50:57;;;;;;;24.60;22.27;;;13.80;99.90;;;;;;4362670;32;20196;-64
2021/10/16 10:53:38;;;;;;;25.13;22.33;;;13.80;99.90;;;;;;4348768;32;20239;-66
2021/10/16 10:56:21;;;;;;;23.07;21.17;;;13.90;99.90;;;;;;4361318;32;20612;-63
2021/10/16 10:59:08;;;;;;;23.97;22.23;;;13.90;99.90;;;;;;4350727;32;20154;-64
2021/10/16 11:01:52;;;;;;;25.53;23.57;;;14.00;99.90;;;;;;4348332;33;20524;-65
2021/10/16 11:04:40;;;;;;;25.03;22.97;;;14.20;99.90;;;;;;4348482;33;20228;-64
2021/10/16 11:07:13;;;;;;;24.53;22.53;;;14.10;99.90;;;;;;4355493;33;20213;-64
2021/10/16 11:09:40;;;;;;;21.17;19.47;;;14.30;99.90;;;;;;4348941;33;20201;-66
2021/10/16 11:12:09;;;;;;;27.83;23.07;;;14.30;99.90;;;;;;4351896;33;20207;-66
2021/10/16 11:14:38;;;;;;;28.60;26.37;;;14.40;99.90;;;;;;4358979;32;20199;-65
2021/10/16 11:17:08;;;;;;;23.43;21.63;;;14.40;99.90;;;;;;4361849;33;20192;-65
2021/10/16 11:19:53;;;;;;;24.03;22.07;;;14.50;99.90;;;;;;4365228;32;20207;-65
2021/10/16 11:22:21;;;;;;;21.90;20.07;;;14.60;99.90;;;;;;4379005;32;20528;-65
2021/10/16 11:24:48;;;;;;;26.67;22.03;;;14.50;99.90;;;;;;4376680;32;20187;-65
2021/10/16 11:27:23;;;;;;;23.47;21.70;;;14.70;99.90;;;;;;4377475;32;20191;-66
2021/10/16 11:29:52;;;;;;;22.80;20.70;;;14.80;99.90;;;;;;4377499;32;20254;-64
2021/10/16 11:32:22;;;;;;;20.63;18.43;;;15.00;99.90;;;;;;4374031;32;20157;-66
2021/10/16 11:35:00;;;;;;;25.60;23.10;;;15.10;99.90;;;;;;4363744;32;20186;-66
2021/10/16 11:37:49;;;;;;;19.00;17.10;;;15.10;99.90;;;;;;4363080;32;20274;-64
2021/10/16 11:40:18;;;;;;;18.20;16.30;;;15.10;99.90;;;;;;4328888;33;20200;-64
2021/10/16 11:42:50;;;;;;;19.37;17.33;;;15.20;99.90;;;;;;4326764;33;20232;-65
2021/10/16 11:45:18;;;;;;;23.40;20.60;;;15.00;99.90;;;;;;4330205;33;20316;-65
2021/10/16 11:47:52;;;;;;;20.57;18.43;;;15.10;99.90;;;;;;4329178;33;20161;-64
2021/10/16 11:50:21;;;;;;;19.13;17.50;;;15.10;99.90;;;;;;4325753;33;20193;-64
2021/10/16 11:52:49;;;;;;;19.57;17.73;;;15.10;99.90;;;;;;4330221;33;20210;-64
2021/10/16 11:55:19;;;;;;;20.70;19.07;;;15.10;99.90;;;;;;4330487;33;20177;-64
2021/10/16 11:57:49;;;;;;;21.40;19.20;;;15.20;99.90;;;;;;4329337;33;20237;-65
2021/10/16 12:00:24;;;;;;;22.77;20.87;;;15.30;99.90;;;;;;4330901;33;20307;-64
2021/10/16 12:02:52;;;;;;;21.07;18.90;;;15.40;99.90;;;;;;4329990;33;20224;-65
2021/10/16 12:05:21;;;;;;;20.80;18.17;;;15.40;99.90;;;;;;4318279;33;20183;-66
2021/10/16 12:07:49;;;;;;;19.73;18.17;;;15.40;99.90;;;;;;4318266;33;20177;-64
2021/10/16 12:10:27;;;;;;;21.50;19.70;;;15.40;99.90;;;;;;4328877;33;20204;-67
2021/10/16 12:13:02;;;;;;;19.40;17.57;;;15.20;99.90;;;;;;4328830;33;20161;-64
2021/10/16 12:15:40;;;;;;;22.27;20.07;;;14.80;99.90;;;;;;4328226;33;20187;-64
2021/10/16 12:18:17;;;;;;;22.37;18.50;;;14.40;99.90;;;;;;4356633;33;20153;-64
2021/10/16 12:20:46;;;;;;;27.33;22.30;;;14.00;99.90;;;;;;4360137;32;20145;-65
2021/10/16 12:23:13;;;;;;;21.63;19.63;;;13.80;99.90;;;;;;4357459;33;20173;-64
2021/10/16 12:25:48;;;;;;;21.03;18.50;;;13.70;99.90;;;;;;4357654;33;20277;-64
2021/10/16 12:28:16;;;;;;;21.33;19.20;;;13.70;99.90;;;;;;4362667;32;20157;-67
2021/10/16 12:31:07;;;;;;;20.73;17.60;;;13.80;99.90;;;;;;4361454;33;20196;-64
2021/10/16 12:33:59;;;;;;;24.00;16.57;;;14.00;99.90;;;;;;4362432;32;20170;-63
2021/10/16 12:36:28;;;;;;;19.13;17.20;;;14.10;99.90;;;;;;4362982;32;20140;-65
2021/10/16 12:38:58;;;;;;;27.40;21.13;;;14.20;99.90;;;;;;4362729;32;20615;-64
2021/10/16 12:41:33;;;;;;;18.93;16.93;;;14.40;99.90;;;;;;4361463;33;20188;-67
2021/10/16 12:44:14;;;;;;;22.57;20.13;;;14.60;99.90;;;;;;4361895;32;20157;-65